Time;durP1;ratioP1;P1;durP2;ratioP2;P2;SDS_P1;SDS_P2;PMS_P1;PMS_P2;Temp;Humidity;BMP_temperature;BMP_pressure;BME280_temperature;BME280_humidity;BME280_pressure;Samples;Min_cycle;Max_cycle;Signal;HPM_P1;HPM_P2
2021/11/07 00:01:04;;;;;;;1.57;1.10;;;11.20;98.20;;;;;;5069689;28;20540;-75
2021/11/07 00:03:38;;;;;;;1.53;1.10;;;11.20;98.20;;;;;;5070413;28;20520;-76
2021/11/07 00:06:09;;;;;;;1.53;1.10;;;11.20;98.20;;;;;;5071401;28;20540;-76
2021/11/07 00:08:44;;;;;;;1.97;1.77;;;11.20;98.20;;;;;;5070457;28;20474;-75
2021/11/07 00:11:20;;;;;;;1.53;1.10;;;11.20;98.20;;;;;;5069937;28;20468;-75
2021/11/07 00:13:48;;;;;;;1.53;1.10;;;11.10;98.20;;;;;;5069359;28;20480;-76
2021/11/07 00:16:23;;;;;;;1.53;1.07;;;11.10;98.20;;;;;;5063997;28;20853;-76
2021/11/07 00:19:00;;;;;;;1.57;1.10;;;11.20;98.20;;;;;;5070257;28;20932;-75
2021/11/07 00:21:29;;;;;;;1.60;1.20;;;11.10;98.20;;;;;;5071767;28;20823;-75
2021/11/07 00:24:02;;;;;;;1.57;1.13;;;11.20;98.20;;;;;;5071789;28;20468;-75
2021/11/07 00:26:35;;;;;;;1.60;1.10;;;11.10;98.20;;;;;;5071339;28;20575;-76
2021/11/07 00:29:06;;;;;;;1.57;1.10;;;11.10;98.20;;;;;;5071425;28;20871;-75
2021/11/07 00:31:43;;;;;;;1.57;1.10;;;11.10;98.20;;;;;;5071538;28;20556;-77
2021/11/07 00:36:57;;;;;;;1.50;1.10;;;11.10;98.20;;;;;;5071938;28;20476;-74
2021/11/07 00:39:30;;;;;;;1.53;1.10;;;11.10;98.20;;;;;;5071638;28;20493;-75
2021/11/07 00:42:04;;;;;;;1.57;1.10;;;11.10;98.20;;;;;;5071673;28;20457;-75
2021/11/07 00:44:36;;;;;;;1.50;1.10;;;11.10;98.20;;;;;;5067429;28;20869;-76
2021/11/07 00:47:13;;;;;;;1.57;1.13;;;11.10;98.20;;;;;;5070152;28;20648;-73
2021/11/07 00:49:43;;;;;;;1.70;1.57;;;11.10;98.20;;;;;;5062764;28;20661;-76
2021/11/07 00:52:20;;;;;;;1.50;1.10;;;11.10;98.20;;;;;;5068906;28;20457;-76
2021/11/07 00:54:59;;;;;;;1.53;1.10;;;11.10;98.20;;;;;;5071519;28;20522;-75
2021/11/07 00:57:36;;;;;;;1.50;1.10;;;11.00;98.20;;;;;;5070497;28;20529;-76
2021/11/07 01:00:09;;;;;;;1.70;1.43;;;11.00;98.20;;;;;;5070533;28;20911;-76
2021/11/07 01:02:38;;;;;;;1.50;1.20;;;11.00;98.20;;;;;;5070344;28;20461;-76
2021/11/07 01:05:10;;;;;;;1.53;1.10;;;11.00;98.20;;;;;;5070310;28;20468;-76
2021/11/07 01:07:37;;;;;;;1.53;1.10;;;11.00;98.20;;;;;;5069933;28;20490;-76
2021/11/07 01:10:06;;;;;;;1.50;1.10;;;11.00;98.20;;;;;;5069329;28;20540;-75
2021/11/07 01:12:33;;;;;;;1.53;1.20;;;11.00;98.20;;;;;;5063990;28;20496;-76
2021/11/07 01:15:00;;;;;;;1.57;1.20;;;11.00;98.20;;;;;;5069340;28;20467;-76
2021/11/07 01:17:27;;;;;;;1.57;1.10;;;11.00;98.20;;;;;;5060603;28;20483;-75
2021/11/07 01:19:55;;;;;;;1.60;1.20;;;11.00;98.20;;;;;;5069417;28;20481;-75
2021/11/07 01:22:29;;;;;;;1.60;1.20;;;11.00;98.20;;;;;;5069343;28;20461;-75
2021/11/07 01:24:58;;;;;;;1.57;1.10;;;11.00;98.20;;;;;;5067005;28;20499;-75
2021/11/07 01:27:31;;;;;;;1.60;1.20;;;10.90;98.20;;;;;;5065232;28;20538;-75
2021/11/07 01:30:01;;;;;;;1.57;1.10;;;10.90;98.20;;;;;;5070571;28;20977;-75
2021/11/07 01:32:34;;;;;;;1.60;1.10;;;10.80;98.20;;;;;;5068966;28;20560;-75
2021/11/07 01:35:05;;;;;;;1.57;1.10;;;10.80;98.20;;;;;;5068597;28;20987;-75
2021/11/07 01:37:35;;;;;;;1.60;1.20;;;10.80;98.20;;;;;;5068576;28;20486;-74
2021/11/07 01:40:09;;;;;;;1.50;1.10;;;10.70;98.20;;;;;;5070181;28;20493;-75
2021/11/07 01:42:38;;;;;;;1.57;1.10;;;10.70;98.20;;;;;;5068569;28;20465;-75
2021/11/07 01:45:11;;;;;;;1.50;1.10;;;10.60;98.20;;;;;;5063763;28;20461;-76
2021/11/07 01:47:43;;;;;;;1.60;1.20;;;10.60;98.20;;;;;;5065066;28;20485;-76
2021/11/07 01:50:10;;;;;;;1.57;1.10;;;10.50;98.20;;;;;;5068223;28;20485;-76
2021/11/07 01:52:40;;;;;;;1.50;1.10;;;10.50;98.20;;;;;;5070850;28;20461;-74
2021/11/07 01:55:07;;;;;;;1.60;1.10;;;10.40;98.20;;;;;;5073092;28;20461;-75
2021/11/07 01:57:37;;;;;;;1.53;1.20;;;10.40;98.20;;;;;;5071310;28;20488;-76
2021/11/07 02:00:14;;;;;;;1.60;1.30;;;10.40;98.20;;;;;;5073194;28;20481;-75
2021/11/07 02:02:41;;;;;;;1.53;1.10;;;10.30;98.20;;;;;;5073866;28;21007;-75
2021/11/07 02:05:09;;;;;;;1.50;1.10;;;10.30;98.20;;;;;;5073737;28;20475;-76
2021/11/07 02:07:36;;;;;;;1.53;1.20;;;10.30;98.20;;;;;;5072399;28;20606;-75
2021/11/07 02:10:06;;;;;;;1.60;1.10;;;10.30;98.20;;;;;;5063329;28;20461;-75
2021/11/07 02:12:32;;;;;;;1.60;1.20;;;10.20;98.20;;;;;;5070682;28;20457;-75
2021/11/07 02:15:00;;;;;;;1.57;1.20;;;10.20;98.20;;;;;;5068783;28;20454;-76
2021/11/07 02:17:27;;;;;;;1.57;1.10;;;10.20;98.20;;;;;;5067314;28;20477;-76
2021/11/07 02:19:55;;;;;;;1.50;1.10;;;10.10;98.20;;;;;;5071940;28;20488;-74
2021/11/07 02:22:23;;;;;;;1.50;1.10;;;10.10;98.20;;;;;;5071621;28;20477;-75
2021/11/07 02:24:51;;;;;;;1.60;1.20;;;10.10;98.20;;;;;;5072313;28;20936;-75
2021/11/07 02:27:18;;;;;;;1.60;1.10;;;10.10;98.20;;;;;;5072446;28;20484;-75
2021/11/07 02:29:45;;;;;;;1.53;1.10;;;10.00;98.20;;;;;;5072484;28;20469;-76
2021/11/07 02:32:11;;;;;;;1.57;1.10;;;10.00;98.20;;;;;;5072948;28;20468;-75
2021/11/07 02:34:38;;;;;;;1.70;1.53;;;10.00;98.20;;;;;;5071238;28;20464;-76
2021/11/07 02:37:06;;;;;;;1.60;1.30;;;10.00;98.20;;;;;;5070184;28;20488;-76
2021/11/07 02:39:34;;;;;;;1.60;1.30;;;10.00;98.20;;;;;;5064407;28;20843;-76
2021/11/07 02:42:02;;;;;;;1.57;1.20;;;10.00;98.20;;;;;;5062780;28;20475;-76
2021/11/07 02:44:31;;;;;;;1.60;1.10;;;9.90;98.20;;;;;;5070402;28;21029;-76
2021/11/07 02:46:59;;;;;;;1.60;1.20;;;9.90;98.20;;;;;;5064207;28;20501;-76
2021/11/07 02:49:26;;;;;;;1.70;1.50;;;9.90;98.20;;;;;;5066354;28;20472;-75
2021/11/07 02:51:55;;;;;;;1.60;1.20;;;9.90;98.20;;;;;;5070540;28;20469;-75
2021/11/07 02:54:24;;;;;;;1.60;1.10;;;9.80;98.20;;;;;;5071245;28;20469;-76
2021/11/07 02:56:52;;;;;;;1.60;1.20;;;9.80;98.20;;;;;;5070208;28;20507;-76
2021/11/07 02:59:21;;;;;;;1.60;1.10;;;9.80;98.20;;;;;;5068619;28;20465;-76
2021/11/07 03:01:49;;;;;;;1.57;1.10;;;9.80;98.20;;;;;;5070601;28;20576;-77
2021/11/07 03:04:17;;;;;;;1.60;1.20;;;9.80;98.20;;;;;;5070069;28;20966;-76
2021/11/07 03:06:43;;;;;;;1.60;1.20;;;9.80;98.20;;;;;;5069942;28;20492;-75
2021/11/07 03:09:14;;;;;;;1.60;1.20;;;9.80;98.20;;;;;;5070642;28;20595;-76
2021/11/07 03:11:42;;;;;;;1.50;1.20;;;9.80;98.20;;;;;;5069338;28;20846;-76
2021/11/07 03:14:12;;;;;;;1.60;1.30;;;9.80;98.20;;;;;;5070155;28;20518;-75
2021/11/07 03:16:40;;;;;;;1.57;1.20;;;9.80;98.20;;;;;;5069636;28;20503;-76
2021/11/07 03:19:07;;;;;;;1.60;1.20;;;9.80;98.20;;;;;;5061896;28;20461;-74
2021/11/07 03:21:34;;;;;;;1.53;1.10;;;9.80;98.20;;;;;;5069075;28;20488;-76
2021/11/07 03:24:01;;;;;;;1.60;1.20;;;9.80;98.20;;;;;;5070432;28;20473;-76
2021/11/07 03:26:29;;;;;;;1.60;1.27;;;9.90;98.20;;;;;;5065939;28;20483;-76
2021/11/07 03:28:59;;;;;;;1.57;1.20;;;9.80;98.20;;;;;;5067226;28;20590;-76
2021/11/07 03:31:35;;;;;;;1.60;1.20;;;9.90;98.20;;;;;;5068373;28;20453;-76
2021/11/07 03:34:04;;;;;;;1.57;1.20;;;9.90;98.20;;;;;;5070273;28;20891;-76
2021/11/07 03:36:42;;;;;;;1.57;1.10;;;9.90;98.20;;;;;;5070419;28;20493;-76
2021/11/07 03:39:11;;;;;;;1.60;1.20;;;9.90;98.20;;;;;;5064613;28;20461;-76
2021/11/07 03:41:38;;;;;;;1.57;1.20;;;9.90;98.20;;;;;;5070409;28;20489;-76
2021/11/07 03:44:05;;;;;;;1.60;1.20;;;9.90;98.20;;;;;;5069987;28;20461;-76
2021/11/07 03:46:34;;;;;;;1.57;1.10;;;9.90;98.20;;;;;;5059422;28;20496;-76
2021/11/07 03:49:02;;;;;;;1.60;1.20;;;9.90;98.20;;;;;;5067528;28;20748;-75
2021/11/07 03:51:30;;;;;;;1.57;1.13;;;10.00;98.20;;;;;;5069614;28;20461;-76
2021/11/07 03:53:58;;;;;;;1.60;1.10;;;10.00;98.20;;;;;;5069912;28;20475;-76
2021/11/07 03:56:25;;;;;;;1.83;1.60;;;10.00;98.20;;;;;;5069238;28;20491;-75
2021/11/07 03:58:52;;;;;;;1.57;1.20;;;10.00;98.20;;;;;;5068535;28;20468;-77
2021/11/07 04:01:19;;;;;;;1.53;1.10;;;10.00;98.20;;;;;;5069681;28;20493;-77
2021/11/07 04:03:48;;;;;;;1.50;1.20;;;10.00;98.20;;;;;;5069929;28;20465;-76
2021/11/07 04:06:16;;;;;;;1.60;1.20;;;10.00;98.20;;;;;;5068938;28;20807;-76
2021/11/07 04:08:43;;;;;;;1.60;1.30;;;10.00;98.20;;;;;;5068066;28;20511;-76
2021/11/07 04:11:10;;;;;;;1.57;1.10;;;10.00;98.20;;;;;;5069046;28;20925;-76
2021/11/07 04:13:38;;;;;;;1.57;1.17;;;10.00;98.20;;;;;;5067584;28;20462;-75
2021/11/07 04:16:08;;;;;;;1.57;1.10;;;10.00;98.20;;;;;;5067046;28;20952;-76
2021/11/07 04:18:35;;;;;;;1.60;1.20;;;10.10;98.20;;;;;;5067993;28;20511;-76
2021/11/07 04:21:04;;;;;;;1.57;1.20;;;10.10;98.20;;;;;;5069176;28;20568;-75
2021/11/07 04:23:30;;;;;;;1.53;1.20;;;10.10;98.20;;;;;;5069428;28;20461;-76
2021/11/07 04:25:58;;;;;;;1.57;1.20;;;10.10;98.20;;;;;;5068330;28;20498;-76
2021/11/07 04:28:25;;;;;;;1.57;1.20;;;10.10;98.20;;;;;;5068862;28;20489;-76
2021/11/07 04:30:52;;;;;;;2.07;1.67;;;10.10;98.20;;;;;;5068534;28;20558;-75
2021/11/07 04:33:19;;;;;;;1.57;1.20;;;10.10;98.20;;;;;;5069426;28;20457;-76
2021/11/07 04:35:46;;;;;;;1.80;1.50;;;10.10;98.20;;;;;;5062397;28;20469;-76
2021/11/07 04:38:14;;;;;;;1.70;1.40;;;10.10;98.20;;;;;;5067288;28;20489;-76
2021/11/07 04:40:41;;;;;;;1.60;1.20;;;10.20;98.20;;;;;;5062229;28;20485;-76
2021/11/07 04:43:08;;;;;;;1.57;1.10;;;10.20;98.20;;;;;;5064450;28;20457;-76
2021/11/07 04:45:35;;;;;;;1.60;1.20;;;10.20;98.20;;;;;;5067931;28;20494;-76
2021/11/07 04:48:03;;;;;;;1.53;1.10;;;10.20;98.20;;;;;;5067032;28;20492;-76
2021/11/07 04:50:30;;;;;;;1.60;1.10;;;10.20;98.20;;;;;;5067250;28;20469;-76
2021/11/07 04:53:02;;;;;;;1.50;1.20;;;10.30;98.20;;;;;;5068928;28;20551;-76
2021/11/07 04:55:30;;;;;;;1.53;1.10;;;10.30;98.20;;;;;;5060875;28;20461;-76
2021/11/07 04:57:56;;;;;;;1.60;1.30;;;10.30;98.20;;;;;;5065205;28;20485;-76
2021/11/07 05:00:24;;;;;;;1.50;1.13;;;10.30;98.20;;;;;;5068663;28;20465;-75
2021/11/07 05:02:51;;;;;;;1.57;1.20;;;10.30;98.20;;;;;;5069123;28;20466;-76
2021/11/07 05:05:20;;;;;;;1.53;1.10;;;10.30;98.20;;;;;;5068676;28;20466;-76
2021/11/07 05:07:48;;;;;;;1.57;1.10;;;10.30;98.20;;;;;;5067357;28;20568;-76
2021/11/07 05:10:15;;;;;;;1.57;1.20;;;10.30;98.20;;;;;;5068503;28;20461;-76
2021/11/07 05:12:43;;;;;;;1.60;1.10;;;10.30;98.20;;;;;;5059959;28;20461;-76
2021/11/07 05:15:10;;;;;;;1.53;1.10;;;10.30;98.20;;;;;;5067554;28;20995;-75
2021/11/07 05:17:37;;;;;;;1.60;1.30;;;10.40;98.20;;;;;;5065981;28;20488;-74
2021/11/07 05:20:05;;;;;;;1.60;1.20;;;10.40;98.20;;;;;;5068398;28;20461;-76
2021/11/07 05:22:32;;;;;;;1.60;1.30;;;10.40;98.20;;;;;;5067793;28;20981;-75
2021/11/07 05:24:59;;;;;;;1.60;1.20;;;10.40;98.20;;;;;;5068013;28;21096;-76
2021/11/07 05:27:26;;;;;;;1.60;1.20;;;10.40;98.20;;;;;;5066513;28;20493;-76
2021/11/07 05:29:54;;;;;;;1.60;1.10;;;10.40;98.20;;;;;;5068108;28;20469;-75
2021/11/07 05:32:20;;;;;;;1.53;1.10;;;10.40;98.20;;;;;;5066833;28;20458;-76
2021/11/07 05:34:47;;;;;;;1.60;1.20;;;10.50;98.20;;;;;;5068057;28;20465;-76
2021/11/07 05:37:14;;;;;;;1.57;1.20;;;10.50;98.20;;;;;;5066042;28;21025;-75
2021/11/07 05:39:41;;;;;;;1.60;1.20;;;10.50;98.20;;;;;;5068932;28;20473;-76
2021/11/07 05:42:10;;;;;;;1.53;1.10;;;10.50;98.20;;;;;;5067961;28;20485;-76
2021/11/07 05:44:37;;;;;;;1.53;1.20;;;10.50;98.20;;;;;;5067908;28;20867;-76
2021/11/07 05:47:06;;;;;;;1.50;1.20;;;10.50;98.20;;;;;;5066148;28;20934;-74
2021/11/07 05:49:32;;;;;;;1.60;1.30;;;10.50;98.20;;;;;;5063231;28;20470;-76
2021/11/07 05:51:59;;;;;;;1.57;1.10;;;10.50;98.20;;;;;;5067506;28;20458;-76
2021/11/07 05:54:26;;;;;;;1.53;1.00;;;10.60;98.20;;;;;;5067971;28;20457;-76
2021/11/07 05:56:53;;;;;;;1.60;1.20;;;10.60;98.20;;;;;;5065681;28;21214;-76
2021/11/07 05:59:20;;;;;;;1.60;1.13;;;10.60;98.20;;;;;;5061919;28;20963;-76
2021/11/07 06:01:47;;;;;;;1.57;1.10;;;10.60;98.20;;;;;;5058823;28;20488;-75
2021/11/07 06:04:15;;;;;;;1.60;1.20;;;10.60;98.20;;;;;;5067420;28;20465;-76
2021/11/07 06:06:42;;;;;;;1.57;1.10;;;10.60;98.20;;;;;;5066792;28;20496;-75
2021/11/07 06:09:09;;;;;;;1.57;1.10;;;10.60;98.20;;;;;;5066991;28;20466;-76
2021/11/07 06:11:36;;;;;;;1.60;1.20;;;10.70;98.20;;;;;;5065697;28;20829;-76
2021/11/07 06:14:03;;;;;;;1.60;1.20;;;10.70;98.20;;;;;;5061204;28;20612;-74
2021/11/07 06:16:30;;;;;;;1.60;1.30;;;10.70;98.20;;;;;;5065522;28;20527;-75
2021/11/07 06:18:57;;;;;;;1.60;1.20;;;10.70;98.20;;;;;;5066469;28;20465;-75
2021/11/07 06:21:25;;;;;;;1.53;1.10;;;10.70;98.20;;;;;;5067118;28;20910;-76
2021/11/07 06:23:55;;;;;;;1.50;1.10;;;10.70;98.20;;;;;;5067612;28;20472;-76
2021/11/07 06:26:21;;;;;;;1.57;1.10;;;10.70;98.20;;;;;;5066672;28;20492;-76
2021/11/07 06:28:49;;;;;;;1.60;1.10;;;10.70;98.20;;;;;;5066227;28;21022;-76
2021/11/07 06:31:16;;;;;;;1.60;1.20;;;10.70;98.20;;;;;;5066793;28;20484;-76
2021/11/07 06:33:43;;;;;;;1.57;1.20;;;10.80;98.20;;;;;;5067860;28;20469;-75
2021/11/07 06:36:09;;;;;;;1.60;1.10;;;10.80;98.20;;;;;;5066960;28;20464;-76
2021/11/07 06:38:37;;;;;;;1.60;1.20;;;10.80;98.20;;;;;;5067706;28;20462;-76
2021/11/07 06:41:04;;;;;;;1.57;1.10;;;10.80;98.20;;;;;;5070627;28;20484;-76
2021/11/07 06:43:31;;;;;;;1.70;1.53;;;10.80;98.20;;;;;;5070237;28;20464;-76
2021/11/07 06:45:58;;;;;;;1.60;1.20;;;10.80;98.20;;;;;;5066820;28;20466;-76
2021/11/07 06:48:25;;;;;;;1.57;1.17;;;10.80;98.20;;;;;;5068752;28;20491;-75
2021/11/07 06:50:52;;;;;;;1.57;1.10;;;10.90;98.20;;;;;;5069446;28;20980;-74
2021/11/07 06:53:19;;;;;;;1.53;1.10;;;10.80;98.20;;;;;;5070748;28;20753;-75
2021/11/07 06:55:47;;;;;;;1.53;1.10;;;10.90;98.20;;;;;;5069303;28;20465;-76
2021/11/07 06:58:27;;;;;;;1.53;1.10;;;10.80;98.20;;;;;;5077191;28;20488;-73
2021/11/07 07:00:55;;;;;;;1.90;1.50;;;10.90;98.20;;;;;;5074030;28;20461;-76
2021/11/07 07:03:25;;;;;;;1.53;1.10;;;10.90;98.20;;;;;;5083600;28;20457;-76
2021/11/07 07:05:53;;;;;;;1.57;1.10;;;10.90;98.20;;;;;;5079653;28;20469;-75
2021/11/07 07:08:23;;;;;;;1.60;1.40;;;10.90;98.20;;;;;;5079823;28;20513;-77
2021/11/07 07:10:55;;;;;;;1.60;1.10;;;10.90;98.20;;;;;;5081930;28;20461;-76
2021/11/07 07:13:27;;;;;;;1.60;1.10;;;10.90;98.20;;;;;;5082373;28;20544;-75
2021/11/07 07:16:03;;;;;;;1.60;1.20;;;10.90;98.20;;;;;;5074422;28;20533;-77
2021/11/07 07:18:55;;;;;;;1.53;1.07;;;10.90;98.20;;;;;;5065958;28;20454;-75
2021/11/07 07:21:34;;;;;;;1.50;1.10;;;11.00;98.20;;;;;;5081795;28;20469;-76
2021/11/07 07:29:49;;;;;;;1.57;1.20;;;11.00;98.20;;;;;;5068101;28;20653;-75
2021/11/07 07:32:43;;;;;;;1.57;1.10;;;11.00;98.20;;;;;;5072344;28;20461;-75
2021/11/07 07:35:11;;;;;;;1.57;1.20;;;10.90;98.20;;;;;;5071811;28;20523;-77
2021/11/07 07:37:38;;;;;;;1.53;1.10;;;11.00;98.20;;;;;;5070640;28;20489;-75
2021/11/07 07:40:08;;;;;;;1.53;1.10;;;11.00;98.20;;;;;;5071057;28;20863;-76
2021/11/07 07:42:36;;;;;;;1.57;1.17;;;11.00;98.20;;;;;;5072081;28;20493;-78
2021/11/07 07:45:04;;;;;;;1.60;1.13;;;11.00;98.20;;;;;;5068201;28;20468;-76
2021/11/07 07:47:31;;;;;;;1.60;1.20;;;11.00;98.20;;;;;;5061891;28;20485;-75
2021/11/07 07:49:57;;;;;;;1.57;1.20;;;11.00;98.20;;;;;;5070647;28;20454;-75
2021/11/07 07:52:26;;;;;;;1.60;1.20;;;11.00;98.20;;;;;;5070243;28;20462;-74
2021/11/07 07:54:53;;;;;;;1.53;1.10;;;11.00;98.20;;;;;;5070895;28;20469;-76
2021/11/07 07:57:20;;;;;;;1.60;1.20;;;11.00;98.20;;;;;;5069468;28;20485;-75
2021/11/07 07:59:49;;;;;;;1.60;1.10;;;11.00;98.20;;;;;;5070337;28;20793;-75
2021/11/07 08:02:15;;;;;;;1.53;1.10;;;11.00;98.20;;;;;;5069781;28;20995;-76
2021/11/07 08:04:42;;;;;;;1.50;1.20;;;11.10;98.20;;;;;;5070033;28;20461;-76
2021/11/07 08:07:09;;;;;;;1.60;1.17;;;11.10;98.20;;;;;;5069303;28;21034;-77
2021/11/07 08:09:36;;;;;;;1.57;1.20;;;11.20;98.20;;;;;;5070489;28;20944;-76
2021/11/07 08:12:03;;;;;;;1.60;1.10;;;11.20;98.20;;;;;;5068784;28;20469;-76
2021/11/07 08:14:30;;;;;;;1.60;1.10;;;11.30;98.20;;;;;;5070482;28;20461;-75
2021/11/07 08:16:58;;;;;;;1.60;1.20;;;11.30;98.20;;;;;;5060738;28;20490;-75
2021/11/07 08:19:25;;;;;;;1.57;1.10;;;11.30;98.20;;;;;;5060899;28;20466;-77
2021/11/07 08:21:53;;;;;;;1.60;1.10;;;11.40;98.20;;;;;;5068389;28;20490;-75
2021/11/07 08:24:20;;;;;;;1.60;1.10;;;11.40;98.20;;;;;;5071419;28;20465;-76
2021/11/07 08:26:48;;;;;;;1.60;1.10;;;11.50;98.20;;;;;;5069814;28;20505;-74
2021/11/07 08:29:16;;;;;;;1.60;1.10;;;11.50;98.20;;;;;;5071071;28;20693;-75
2021/11/07 08:31:48;;;;;;;1.60;1.10;;;11.50;98.20;;;;;;5071005;28;20465;-74
2021/11/07 08:34:18;;;;;;;1.60;1.10;;;11.60;98.20;;;;;;5072556;28;20853;-75
2021/11/07 08:36:52;;;;;;;1.60;1.10;;;11.60;98.20;;;;;;5071090;28;20489;-76
2021/11/07 08:39:22;;;;;;;1.60;1.10;;;11.60;98.20;;;;;;5070938;28;20465;-76
2021/11/07 08:41:55;;;;;;;1.60;1.20;;;11.60;98.20;;;;;;5060529;28;20572;-75
2021/11/07 09:01:00;;;;;;;1.83;1.53;;;11.70;98.20;;;;;;5058441;28;20499;-76
2021/11/07 09:03:42;;;;;;;1.60;1.20;;;11.80;98.20;;;;;;5057289;28;20482;-77
2021/11/07 09:08:57;;;;;;;1.60;1.10;;;11.80;98.20;;;;;;5030916;28;20465;-76
2021/11/07 09:11:24;;;;;;;1.57;1.10;;;11.90;98.20;;;;;;5058168;28;20821;-76
2021/11/07 09:13:54;;;;;;;1.60;1.10;;;11.90;98.20;;;;;;5059151;28;20469;-76
2021/11/07 09:16:21;;;;;;;1.60;1.00;;;12.00;98.20;;;;;;5057822;28;20471;-76
2021/11/07 09:18:47;;;;;;;1.60;1.10;;;12.00;98.20;;;;;;5058576;28;20552;-75
2021/11/07 09:21:21;;;;;;;1.60;1.20;;;12.00;98.20;;;;;;5061243;28;21072;-76
2021/11/07 09:23:50;;;;;;;1.60;1.20;;;12.00;98.20;;;;;;5058132;28;20770;-75
2021/11/07 09:26:29;;;;;;;1.53;1.10;;;12.00;98.20;;;;;;5059678;28;20466;-74
2021/11/07 09:29:00;;;;;;;1.60;1.10;;;12.10;98.20;;;;;;5061253;28;20529;-75
2021/11/07 09:31:36;;;;;;;1.60;1.00;;;12.20;98.20;;;;;;5062503;28;20877;-75
2021/11/07 09:34:14;;;;;;;1.60;1.10;;;12.20;98.20;;;;;;5060257;28;20469;-75
2021/11/07 09:36:46;;;;;;;1.80;1.33;;;12.30;98.20;;;;;;5060159;28;20548;-76
2021/11/07 09:39:23;;;;;;;1.60;1.10;;;12.40;98.20;;;;;;5054491;28;20470;-74
2021/11/07 09:45:01;;;;;;;1.57;1.03;;;12.60;98.20;;;;;;5012028;28;20453;-75
2021/11/07 09:47:33;;;;;;;1.57;1.00;;;12.70;98.20;;;;;;5056971;28;20503;-75
2021/11/07 09:50:00;;;;;;;1.57;1.10;;;12.80;98.20;;;;;;5060858;28;20878;-76
2021/11/07 09:52:37;;;;;;;1.57;1.00;;;12.80;98.20;;;;;;5058621;28;21005;-73
2021/11/07 09:55:06;;;;;;;1.60;1.10;;;12.80;98.20;;;;;;5070519;28;20495;-75
2021/11/07 09:57:36;;;;;;;1.57;1.00;;;12.80;98.20;;;;;;5057871;28;20494;-75
2021/11/07 10:00:07;;;;;;;1.57;1.10;;;12.80;98.20;;;;;;5065406;28;20535;-78
2021/11/07 10:02:34;;;;;;;1.57;1.10;;;12.80;98.20;;;;;;5047937;28;20511;-75
2021/11/07 10:05:02;;;;;;;1.53;1.10;;;12.70;98.20;;;;;;5057104;28;20483;-76
2021/11/07 10:07:34;;;;;;;1.57;1.10;;;12.60;98.20;;;;;;5054366;28;20493;-75
2021/11/07 10:10:13;;;;;;;1.57;1.10;;;12.60;98.20;;;;;;5057714;28;20471;-75
2021/11/07 10:12:42;;;;;;;1.60;1.10;;;12.60;98.20;;;;;;5060168;28;20525;-75
2021/11/07 10:15:18;;;;;;;1.53;1.00;;;12.50;98.20;;;;;;5061363;28;20468;-77
2021/11/07 10:17:48;;;;;;;1.50;1.10;;;12.50;98.20;;;;;;5059057;28;20492;-75
2021/11/07 10:20:21;;;;;;;1.57;1.00;;;12.50;98.20;;;;;;5060149;28;20880;-74
2021/11/07 10:22:54;;;;;;;1.53;1.03;;;12.50;98.20;;;;;;5060453;28;20571;-75
2021/11/07 10:25:37;;;;;;;1.57;1.00;;;12.40;98.20;;;;;;5072730;28;20473;-75
2021/11/07 10:28:30;;;;;;;1.60;1.10;;;12.40;98.20;;;;;;5074396;28;20747;-77
2021/11/07 10:31:11;;;;;;;1.53;1.00;;;12.40;98.20;;;;;;5055352;28;20551;-74
2021/11/07 10:34:00;;;;;;;1.57;1.10;;;12.40;98.20;;;;;;5056784;28;20471;-76
2021/11/07 10:39:39;;;;;;;1.50;1.00;;;12.50;98.20;;;;;;5028076;28;20453;-76
2021/11/07 10:53:27;;;;;;;1.53;1.00;;;12.70;98.20;;;;;;5056183;28;20987;-75
2021/11/07 10:56:00;;;;;;;1.53;1.00;;;12.70;98.20;;;;;;5054703;28;20686;-76
2021/11/07 10:58:29;;;;;;;1.53;1.00;;;12.70;98.20;;;;;;5058246;28;20495;-75
2021/11/07 11:00:59;;;;;;;1.50;1.00;;;12.70;98.20;;;;;;5058767;28;20468;-74
2021/11/07 11:03:26;;;;;;;1.57;1.00;;;12.80;98.20;;;;;;5055668;28;20584;-73
2021/11/07 11:05:58;;;;;;;1.53;1.00;;;12.80;98.20;;;;;;5047058;28;20476;-75
2021/11/07 11:08:29;;;;;;;1.53;1.00;;;12.90;98.20;;;;;;5056850;28;23806;-74
2021/11/07 11:11:04;;;;;;;1.53;1.00;;;12.90;98.20;;;;;;5056013;28;20464;-76
2021/11/07 11:13:40;;;;;;;1.53;1.00;;;12.80;98.20;;;;;;5054432;28;20456;-75
2021/11/07 11:19:27;;;;;;;1.57;1.00;;;12.80;98.20;;;;;;5029685;28;20458;-74
2021/11/07 11:24:57;;;;;;;1.57;1.00;;;13.00;98.20;;;;;;5055452;28;21054;-74
2021/11/07 11:30:23;;;;;;;1.60;1.10;;;13.20;98.20;;;;;;5050154;28;20472;-77
2021/11/07 11:32:54;;;;;;;1.50;1.07;;;13.40;98.20;;;;;;5054380;28;20502;-78
2021/11/07 11:35:26;;;;;;;1.53;1.00;;;13.60;98.20;;;;;;5057122;28;21346;-76
2021/11/07 11:38:01;;;;;;;1.57;1.00;;;13.70;98.20;;;;;;5055850;28;20478;-76
2021/11/07 11:40:39;;;;;;;1.60;1.10;;;13.70;98.20;;;;;;5055722;28;20469;-77
2021/11/07 11:43:11;;;;;;;1.53;1.00;;;13.60;97.20;;;;;;5057473;28;20574;-75
2021/11/07 11:45:40;;;;;;;1.57;1.00;;;13.50;97.60;;;;;;5057918;28;20556;-76
2021/11/07 11:48:29;;;;;;;1.50;1.00;;;13.30;98.00;;;;;;5058656;28;20669;-75
2021/11/07 11:51:19;;;;;;;1.60;1.03;;;13.20;98.20;;;;;;5058438;28;20847;-75
2021/11/07 11:54:13;;;;;;;1.57;1.03;;;13.10;98.20;;;;;;5057110;28;20465;-73
2021/11/07 11:56:49;;;;;;;1.57;1.10;;;13.00;98.20;;;;;;5056528;28;20485;-73
2021/11/07 11:59:33;;;;;;;1.60;1.10;;;13.00;98.20;;;;;;5056279;28;21002;-74
2021/11/07 12:02:15;;;;;;;1.53;1.10;;;13.00;98.20;;;;;;5056220;28;20465;-73
2021/11/07 12:05:07;;;;;;;1.57;1.07;;;13.00;97.90;;;;;;5054393;28;21093;-73
2021/11/07 12:07:39;;;;;;;1.53;1.10;;;12.90;97.50;;;;;;5023506;28;20485;-76
2021/11/07 12:10:27;;;;;;;1.57;1.00;;;12.90;97.20;;;;;;5058006;28;21001;-76
2021/11/07 12:12:58;;;;;;;1.57;1.00;;;12.80;97.70;;;;;;5057102;28;20473;-74
2021/11/07 12:15:39;;;;;;;1.53;1.00;;;12.80;97.10;;;;;;5057312;28;20922;-74
2021/11/07 12:18:09;;;;;;;1.60;1.30;;;12.80;96.90;;;;;;5057590;28;21083;-75
2021/11/07 12:20:38;;;;;;;1.53;1.00;;;12.90;97.10;;;;;;5057548;28;20465;-75
2021/11/07 12:23:21;;;;;;;1.53;1.07;;;13.00;96.90;;;;;;5057013;28;20839;-77
2021/11/07 12:25:50;;;;;;;1.50;1.00;;;13.20;97.30;;;;;;5047633;28;20893;-75
2021/11/07 12:28:18;;;;;;;1.50;1.00;;;13.40;96.40;;;;;;5049248;28;20482;-75
2021/11/07 12:30:46;;;;;;;1.57;1.00;;;13.50;96.40;;;;;;5055819;28;20480;-74
2021/11/07 12:33:16;;;;;;;1.57;1.00;;;13.50;96.20;;;;;;5056460;28;20473;-74
2021/11/07 12:35:50;;;;;;;1.53;1.00;;;13.50;95.30;;;;;;5048593;28;20504;-74
2021/11/07 12:41:18;;;;;;;1.53;0.97;;;13.60;95.80;;;;;;5055251;28;20571;-74
2021/11/07 12:43:46;;;;;;;1.50;1.00;;;13.80;94.80;;;;;;5054712;28;20763;-74
2021/11/07 12:46:40;;;;;;;1.57;1.00;;;14.00;92.80;;;;;;5052973;28;20485;-74
2021/11/07 12:49:09;;;;;;;1.53;1.00;;;14.20;92.30;;;;;;5048604;28;20827;-75
2021/11/07 12:51:40;;;;;;;1.53;1.00;;;14.20;91.00;;;;;;5049990;28;20473;-75
2021/11/07 12:54:14;;;;;;;1.57;1.00;;;14.10;91.90;;;;;;5053795;28;20477;-74
2021/11/07 12:56:53;;;;;;;1.60;1.10;;;14.00;92.30;;;;;;5058560;28;20496;-74
2021/11/07 12:59:24;;;;;;;1.53;1.00;;;13.80;92.40;;;;;;5057864;28;20488;-75
2021/11/07 13:02:10;;;;;;;1.53;1.00;;;13.60;93.30;;;;;;5054636;28;20472;-76
2021/11/07 13:04:50;;;;;;;1.60;1.00;;;13.40;94.20;;;;;;5055429;28;20542;-75
2021/11/07 13:07:27;;;;;;;1.50;1.00;;;13.30;95.00;;;;;;5055139;28;20481;-77
2021/11/07 13:09:58;;;;;;;1.60;1.00;;;13.20;95.70;;;;;;5055456;28;20476;-75
2021/11/07 13:12:29;;;;;;;1.57;1.10;;;13.20;95.60;;;;;;5056675;28;20473;-73
2021/11/07 13:18:36;;;;;;;1.57;1.00;;;13.30;95.90;;;;;;5055070;28;20485;-74
2021/11/07 13:21:15;;;;;;;1.50;0.90;;;13.40;96.50;;;;;;5053549;28;20925;-76
2021/11/07 13:26:38;;;;;;;1.57;1.10;;;13.50;95.30;;;;;;5040756;28;20484;-76
2021/11/07 13:29:20;;;;;;;1.57;1.00;;;13.40;95.80;;;;;;5053851;28;20554;-78
2021/11/07 13:31:57;;;;;;;1.50;1.00;;;13.40;96.00;;;;;;5046723;28;20470;-75
2021/11/07 13:34:26;;;;;;;1.53;1.00;;;13.40;95.20;;;;;;5055173;28;20777;-73
2021/11/07 13:36:56;;;;;;;1.60;1.17;;;13.30;95.00;;;;;;5053842;28;21300;-75
2021/11/07 13:39:27;;;;;;;1.57;1.10;;;13.30;95.50;;;;;;5054163;28;20481;-75
2021/11/07 13:41:59;;;;;;;1.53;1.00;;;13.30;95.90;;;;;;5054108;28;20465;-75
2021/11/07 13:44:28;;;;;;;1.53;1.00;;;13.30;95.50;;;;;;5056838;28;20998;-77
2021/11/07 13:47:00;;;;;;;1.50;1.00;;;13.30;96.20;;;;;;5055641;28;20530;-76
2021/11/07 13:49:30;;;;;;;1.53;1.00;;;13.30;96.30;;;;;;5058835;28;20469;-75
2021/11/07 13:51:59;;;;;;;1.60;1.00;;;13.20;95.70;;;;;;5059505;28;20467;-74
2021/11/07 13:54:27;;;;;;;1.50;1.07;;;13.10;95.50;;;;;;5066343;28;20871;-73
2021/11/07 13:56:54;;;;;;;1.50;1.00;;;13.00;95.90;;;;;;5061135;28;20497;-75
2021/11/07 13:59:30;;;;;;;1.60;1.10;;;12.90;96.80;;;;;;5062973;28;20465;-73
2021/11/07 14:01:57;;;;;;;1.57;1.10;;;12.90;96.20;;;;;;5061873;28;20479;-74
2021/11/07 14:04:24;;;;;;;1.57;1.00;;;12.80;96.20;;;;;;5062314;28;20491;-73
2021/11/07 14:06:52;;;;;;;1.53;1.00;;;12.80;96.60;;;;;;5062430;28;20493;-75
2021/11/07 14:09:28;;;;;;;1.50;1.00;;;12.70;96.60;;;;;;5068972;28;20924;-74